Time;durP1;ratioP1;P1;durP2;ratioP2;P2;SDS_P1;SDS_P2;PMS_P1;PMS_P2;Temp;Humidity;BMP_temperature;BMP_pressure;BME280_temperature;BME280_humidity;BME280_pressure;Samples;Min_cycle;Max_cycle;Signal;HPM_P1;HPM_P2
2022/03/09 00:02:22;;;;;;;5.97;2.63;;;-1.30;99.90;;;;;;5038123;28;20159;-64
2022/03/09 00:04:48;;;;;;;9.60;3.13;;;-1.30;99.90;;;;;;5035664;28;20042;-64
2022/03/09 00:07:13;;;;;;;6.07;2.33;;;-1.40;99.90;;;;;;5035888;28;20498;-64
2022/03/09 00:09:39;;;;;;;5.75;1.88;;;-1.20;99.90;;;;;;5038533;28;20243;-64
2022/03/09 00:12:05;;;;;;;4.93;2.72;;;-1.30;99.90;;;;;;5035045;28;20394;-64
2022/03/09 00:14:31;;;;;;;10.93;3.70;;;-1.40;99.90;;;;;;5037124;28;20028;-64
2022/03/09 00:16:57;;;;;;;11.43;3.55;;;-1.20;99.90;;;;;;5033551;28;20037;-64
2022/03/09 00:19:24;;;;;;;9.50;2.72;;;-1.20;99.90;;;;;;5032264;28;20104;-64
2022/03/09 00:21:50;;;;;;;3.80;1.90;;;-1.30;99.90;;;;;;5033979;28;20469;-64
2022/03/09 00:24:16;;;;;;;8.98;3.88;;;-1.20;99.90;;;;;;5030803;28;20516;-64
2022/03/09 00:26:42;;;;;;;4.80;2.97;;;-1.30;99.90;;;;;;5030914;28;20074;-64
2022/03/09 00:29:08;;;;;;;4.93;2.28;;;-1.40;99.90;;;;;;5026551;28;20025;-64
2022/03/09 00:31:33;;;;;;;12.02;3.42;;;-1.30;99.90;;;;;;5026426;28;20052;-64
2022/03/09 00:33:59;;;;;;;4.25;2.30;;;-1.40;99.90;;;;;;5025854;28;20022;-64
2022/03/09 00:36:25;;;;;;;4.82;2.83;;;-1.40;99.90;;;;;;5031198;28;20032;-64
2022/03/09 00:38:50;;;;;;;10.15;2.85;;;-1.30;99.90;;;;;;5028872;28;20276;-64
2022/03/09 00:41:16;;;;;;;8.55;3.20;;;-1.20;99.90;;;;;;5034790;28;20033;-64
2022/03/09 00:43:43;;;;;;;5.07;2.53;;;-1.20;99.90;;;;;;5035194;28;20487;-64
2022/03/09 00:46:08;;;;;;;9.18;2.65;;;-1.30;99.90;;;;;;5037597;28;20112;-64
2022/03/09 00:48:34;;;;;;;8.15;3.47;;;-0.80;99.90;;;;;;5033853;28;20080;-64
2022/03/09 00:50:59;;;;;;;5.28;2.42;;;-0.50;99.90;;;;;;5036933;28;20051;-64
2022/03/09 00:53:25;;;;;;;9.63;2.88;;;-0.50;99.90;;;;;;5038858;28;20057;-64
2022/03/09 00:55:51;;;;;;;11.32;2.70;;;-0.40;99.90;;;;;;5042784;28;20102;-64
2022/03/09 00:58:16;;;;;;;8.75;3.38;;;-0.50;99.90;;;;;;5037264;28;20033;-64
2022/03/09 01:00:42;;;;;;;4.97;2.60;;;-0.80;99.90;;;;;;5042894;28;20392;-64
2022/03/09 01:03:08;;;;;;;7.60;2.90;;;-0.70;99.90;;;;;;5050549;28;20110;-64
2022/03/09 01:05:33;;;;;;;7.88;2.80;;;-0.80;99.90;;;;;;5044760;28;20397;-64
2022/03/09 01:07:59;;;;;;;8.43;3.65;;;-0.90;99.90;;;;;;5045396;28;20025;-64
2022/03/09 01:10:24;;;;;;;4.18;1.85;;;-0.80;99.90;;;;;;5043532;28;20109;-64
2022/03/09 01:12:50;;;;;;;5.78;2.20;;;-0.70;99.90;;;;;;5046485;28;20405;-64
2022/03/09 01:15:16;;;;;;;7.05;2.65;;;-0.90;99.90;;;;;;5040021;28;20381;-64
2022/03/09 01:17:42;;;;;;;9.05;2.38;;;-0.80;99.90;;;;;;5037661;28;20095;-64
2022/03/09 01:20:08;;;;;;;5.00;2.10;;;-0.90;99.90;;;;;;5037412;28;20474;-64
2022/03/09 01:22:34;;;;;;;6.97;3.10;;;-1.00;99.90;;;;;;5040983;28;20032;-64
2022/03/09 01:25:00;;;;;;;6.28;3.28;;;-1.00;99.90;;;;;;5035932;28;20049;-64
2022/03/09 01:27:25;;;;;;;12.00;2.45;;;-1.10;99.90;;;;;;5036478;28;20122;-64
2022/03/09 01:29:51;;;;;;;5.00;2.17;;;-1.10;99.90;;;;;;5034802;28;20060;-64
2022/03/09 01:32:16;;;;;;;4.95;2.60;;;-1.20;99.90;;;;;;5036493;28;20493;-64
2022/03/09 01:34:42;;;;;;;7.88;2.67;;;-1.20;99.90;;;;;;5040464;28;20061;-64
2022/03/09 01:37:08;;;;;;;4.22;2.78;;;-1.20;99.90;;;;;;5048983;28;20071;-64
2022/03/09 01:39:33;;;;;;;5.68;2.95;;;-1.20;99.90;;;;;;5042926;28;20029;-64
2022/03/09 01:41:59;;;;;;;7.10;1.98;;;-1.30;99.90;;;;;;5039275;28;20038;-64
2022/03/09 01:44:25;;;;;;;6.72;2.75;;;-1.30;99.90;;;;;;5047385;28;20025;-64
2022/03/09 01:46:52;;;;;;;10.35;3.10;;;-1.40;99.90;;;;;;5046928;28;20120;-64
2022/03/09 01:49:19;;;;;;;7.65;2.95;;;-1.50;99.90;;;;;;5043867;28;20013;-64
2022/03/09 01:51:47;;;;;;;4.93;2.03;;;-1.30;99.90;;;;;;5040289;28;20083;-64
2022/03/09 01:54:14;;;;;;;7.70;3.13;;;-1.30;99.90;;;;;;5044652;28;20049;-64
2022/03/09 01:56:41;;;;;;;3.80;1.98;;;-1.30;99.90;;;;;;5039848;28;20033;-64
2022/03/09 01:59:09;;;;;;;6.05;2.53;;;-1.20;99.90;;;;;;5035789;28;20486;-64
2022/03/09 02:01:35;;;;;;;4.95;1.60;;;-1.20;99.90;;;;;;5046850;28;20025;-64
2022/03/09 02:04:02;;;;;;;5.15;2.40;;;-1.20;99.90;;;;;;5041331;28;20040;-64
2022/03/09 02:06:30;;;;;;;8.10;3.30;;;-1.40;99.90;;;;;;5044663;28;20528;-64
2022/03/09 02:11:41;;;;;;;6.93;2.35;;;-1.50;99.90;;;;;;5042860;28;20039;-64
2022/03/09 02:14:26;;;;;;;7.38;2.88;;;-1.50;99.90;;;;;;5043688;28;20025;-64
2022/03/09 02:16:52;;;;;;;6.55;2.97;;;-1.50;99.90;;;;;;5037778;28;20029;-64
2022/03/09 02:19:17;;;;;;;5.95;2.28;;;-1.50;99.90;;;;;;5046198;28;20131;-64
2022/03/09 02:21:45;;;;;;;4.18;2.20;;;-1.40;99.90;;;;;;5045207;28;20079;-64
2022/03/09 02:24:11;;;;;;;11.05;2.63;;;-1.50;99.90;;;;;;5048091;28;20067;-64
2022/03/09 02:26:36;;;;;;;7.47;2.60;;;-1.60;99.90;;;;;;5046469;28;20049;-64
2022/03/09 02:29:02;;;;;;;6.95;2.40;;;-1.70;99.90;;;;;;5038957;28;20061;-64
2022/03/09 02:31:28;;;;;;;4.22;2.22;;;-1.50;99.90;;;;;;5042311;28;20032;-64
2022/03/09 02:33:53;;;;;;;2.33;1.48;;;-1.50;99.90;;;;;;5039749;28;20327;-64
2022/03/09 02:36:20;;;;;;;4.57;2.05;;;-1.60;99.90;;;;;;5045365;28;20030;-64
2022/03/09 02:38:46;;;;;;;6.18;2.45;;;-1.60;99.90;;;;;;5049994;28;20079;-64
2022/03/09 02:41:12;;;;;;;5.65;2.53;;;-1.60;99.90;;;;;;5039784;28;20037;-64
2022/03/09 02:43:38;;;;;;;5.22;2.58;;;-1.60;99.90;;;;;;5040738;28;20124;-64
2022/03/09 02:46:03;;;;;;;2.67;1.55;;;-1.60;99.90;;;;;;5045305;28;20131;-64
2022/03/09 02:48:29;;;;;;;3.92;2.15;;;-1.60;99.90;;;;;;5051913;28;20462;-64
2022/03/09 02:50:55;;;;;;;6.20;2.55;;;-1.60;99.90;;;;;;5041128;28;20061;-64
2022/03/09 02:53:21;;;;;;;5.03;1.98;;;-1.50;99.90;;;;;;5039097;28;20021;-64
2022/03/09 02:55:47;;;;;;;6.47;2.58;;;-1.50;99.90;;;;;;5041164;28;20026;-64
2022/03/09 02:58:13;;;;;;;4.22;1.83;;;-1.60;99.90;;;;;;5034647;28;20029;-64
2022/03/09 03:00:38;;;;;;;5.22;2.03;;;-1.60;99.90;;;;;;5037405;28;20032;-64
2022/03/09 03:03:04;;;;;;;5.95;3.03;;;-1.60;99.90;;;;;;5053297;28;20107;-64
2022/03/09 03:05:29;;;;;;;4.78;2.28;;;-1.80;99.90;;;;;;5047446;28;20428;-64
2022/03/09 03:07:55;;;;;;;6.00;2.40;;;-1.90;99.90;;;;;;5047812;28;20028;-64
2022/03/09 03:10:20;;;;;;;4.13;1.63;;;-1.90;99.90;;;;;;5043162;28;20044;-64
2022/03/09 03:12:46;;;;;;;9.52;2.00;;;-1.80;99.90;;;;;;5042941;28;20031;-64
2022/03/09 03:15:12;;;;;;;2.88;1.83;;;-1.80;99.90;;;;;;5044523;28;20072;-64
2022/03/09 03:17:38;;;;;;;3.88;2.30;;;-1.80;99.90;;;;;;5048039;28;20055;-64
2022/03/09 03:20:04;;;;;;;2.72;1.77;;;-2.00;99.90;;;;;;5046652;28;20036;-64
2022/03/09 03:22:30;;;;;;;3.15;1.83;;;-2.10;99.90;;;;;;5043817;28;20025;-64
2022/03/09 03:24:56;;;;;;;13.95;3.10;;;-2.10;99.90;;;;;;5053324;28;20029;-64
2022/03/09 03:27:21;;;;;;;3.47;1.98;;;-2.20;99.90;;;;;;5041577;28;20037;-64
2022/03/09 03:29:47;;;;;;;4.38;1.75;;;-2.30;99.90;;;;;;5038878;28;20131;-64
2022/03/09 03:32:13;;;;;;;4.40;2.28;;;-2.30;99.90;;;;;;5030921;28;20091;-64
2022/03/09 03:34:38;;;;;;;8.82;2.25;;;-2.20;99.90;;;;;;5036577;28;20052;-64
2022/03/09 03:37:04;;;;;;;2.45;1.60;;;-2.40;99.90;;;;;;5047190;28;20081;-64
2022/03/09 03:39:29;;;;;;;3.60;1.95;;;-2.40;99.90;;;;;;5042361;28;20037;-64
2022/03/09 03:41:55;;;;;;;11.00;2.80;;;-2.50;99.90;;;;;;5040554;28;20033;-64
2022/03/09 03:44:21;;;;;;;4.15;2.05;;;-2.60;99.90;;;;;;5047715;28;20028;-64
2022/03/09 03:46:46;;;;;;;2.22;1.48;;;-2.60;99.90;;;;;;5045168;28;20051;-64
2022/03/09 03:49:12;;;;;;;3.90;1.80;;;-2.30;99.90;;;;;;5048218;28;20029;-64
2022/03/09 03:51:38;;;;;;;5.20;2.00;;;-2.40;99.90;;;;;;5041536;28;20109;-64
2022/03/09 03:54:03;;;;;;;5.50;2.35;;;-2.40;99.90;;;;;;5039861;28;20063;-64
2022/03/09 03:56:29;;;;;;;2.47;1.30;;;-2.50;99.90;;;;;;5036723;28;20032;-64
2022/03/09 03:58:54;;;;;;;2.55;1.63;;;-2.40;99.90;;;;;;5042060;28;20029;-64
2022/03/09 04:01:20;;;;;;;5.35;1.63;;;-2.30;99.90;;;;;;5044964;28;20438;-64
2022/03/09 04:03:46;;;;;;;2.70;1.50;;;-2.30;99.90;;;;;;5046590;28;20589;-64
2022/03/09 04:06:11;;;;;;;4.75;2.63;;;-2.10;99.90;;;;;;5046598;28;20414;-64
2022/03/09 04:08:37;;;;;;;6.85;1.55;;;-1.90;99.90;;;;;;5034731;28;20452;-64
2022/03/09 04:11:02;;;;;;;2.90;1.60;;;-2.00;99.90;;;;;;5043246;28;20037;-65
2022/03/09 04:13:28;;;;;;;3.75;1.67;;;-2.00;99.90;;;;;;5038575;28;20589;-64
2022/03/09 04:15:54;;;;;;;3.33;1.60;;;-2.10;99.90;;;;;;5042029;28;20059;-64
2022/03/09 04:18:19;;;;;;;5.03;2.65;;;-2.00;99.90;;;;;;5047508;28;20501;-64
2022/03/09 04:20:45;;;;;;;4.70;1.88;;;-2.10;99.90;;;;;;5039990;28;20036;-64
2022/03/09 04:23:10;;;;;;;7.05;2.30;;;-1.90;99.90;;;;;;5040341;28;20095;-64
2022/03/09 04:25:37;;;;;;;4.03;2.13;;;-2.00;99.90;;;;;;5038441;28;20033;-64
2022/03/09 04:28:03;;;;;;;3.88;1.90;;;-1.80;99.90;;;;;;5043111;28;20269;-64
2022/03/09 04:30:29;;;;;;;3.97;1.70;;;-1.70;99.90;;;;;;5044677;28;20556;-64
2022/03/09 04:32:54;;;;;;;3.28;1.27;;;-1.60;99.90;;;;;;5041446;28;20529;-64
2022/03/09 04:35:20;;;;;;;3.63;1.67;;;-1.70;99.90;;;;;;5045584;28;20080;-64
2022/03/09 04:37:45;;;;;;;4.43;1.80;;;-1.70;99.90;;;;;;5047610;28;20021;-64
2022/03/09 04:40:12;;;;;;;4.63;1.90;;;-1.70;99.90;;;;;;5042092;28;20409;-64
2022/03/09 04:42:38;;;;;;;2.67;1.50;;;-1.60;99.90;;;;;;5049365;28;20485;-64
2022/03/09 04:45:04;;;;;;;3.85;1.40;;;-1.40;99.90;;;;;;5040445;28;20533;-64
2022/03/09 04:47:30;;;;;;;4.22;1.60;;;-0.80;99.90;;;;;;5047671;28;20032;-64
2022/03/09 04:49:55;;;;;;;9.10;1.88;;;-0.10;99.90;;;;;;5041127;28;20030;-64
2022/03/09 04:52:21;;;;;;;6.15;1.98;;;0.40;99.90;;;;;;5043193;28;20061;-64
2022/03/09 04:54:48;;;;;;;3.00;1.17;;;0.70;99.90;;;;;;5038042;28;20025;-64
2022/03/09 04:57:14;;;;;;;3.03;1.58;;;0.90;99.90;;;;;;5041397;28;20041;-64
2022/03/09 04:59:40;;;;;;;3.38;1.98;;;1.20;99.90;;;;;;5042338;28;20040;-64
2022/03/09 05:02:06;;;;;;;1.67;1.10;;;1.30;99.90;;;;;;5046486;28;20482;-64
2022/03/09 05:04:31;;;;;;;3.53;1.95;;;1.40;99.90;;;;;;5050656;28;20571;-64
2022/03/09 05:06:57;;;;;;;3.97;1.95;;;1.40;99.90;;;;;;5045833;28;20617;-64
2022/03/09 05:09:23;;;;;;;4.60;2.08;;;1.30;99.90;;;;;;5051015;28;20083;-64
2022/03/09 05:11:48;;;;;;;5.45;2.10;;;1.30;99.90;;;;;;5043788;28;20022;-64
2022/03/09 05:14:14;;;;;;;10.63;2.45;;;1.00;99.90;;;;;;5043398;28;20028;-64
2022/03/09 05:16:39;;;;;;;7.25;2.53;;;0.70;99.90;;;;;;5034433;28;20538;-64
2022/03/09 05:19:05;;;;;;;4.30;1.73;;;0.40;99.90;;;;;;5041355;28;20033;-64
2022/03/09 05:21:31;;;;;;;9.07;2.28;;;0.30;99.90;;;;;;5042790;28;20033;-65
2022/03/09 05:23:57;;;;;;;4.68;2.70;;;0.10;99.90;;;;;;5042922;28;20400;-64
2022/03/09 05:26:22;;;;;;;3.60;1.70;;;0.00;99.90;;;;;;5041130;28;20029;-64
2022/03/09 05:28:48;;;;;;;3.33;2.00;;;0.00;99.90;;;;;;5036163;28;20028;-65
2022/03/09 05:31:14;;;;;;;3.08;1.92;;;-0.10;99.90;;;;;;5041172;28;20049;-64
2022/03/09 05:33:40;;;;;;;3.70;1.70;;;-0.10;99.90;;;;;;5044560;28;20473;-65
2022/03/09 05:36:05;;;;;;;5.13;2.40;;;-0.20;99.90;;;;;;5041280;28;20033;-65
2022/03/09 05:38:31;;;;;;;3.85;1.42;;;-0.20;99.90;;;;;;5042347;28;20032;-65
2022/03/09 05:40:57;;;;;;;4.10;1.67;;;-0.10;99.90;;;;;;5042385;28;20386;-65
2022/03/09 05:43:22;;;;;;;2.88;1.60;;;0.00;99.90;;;;;;5041133;28;20476;-65
2022/03/09 05:45:48;;;;;;;9.93;2.20;;;-0.10;99.90;;;;;;5036558;28;20417;-65
2022/03/09 05:48:13;;;;;;;2.63;1.95;;;-0.20;99.90;;;;;;5038117;28;20033;-65
2022/03/09 05:50:39;;;;;;;8.15;2.60;;;-0.30;99.90;;;;;;5048188;28;20367;-65
2022/03/09 05:53:05;;;;;;;18.33;1.42;;;-0.40;99.90;;;;;;5043239;28;20033;-65
2022/03/09 05:55:31;;;;;;;9.25;2.40;;;-0.40;99.90;;;;;;5042149;28;20120;-65
2022/03/09 05:57:56;;;;;;;4.90;1.92;;;-0.60;99.90;;;;;;5041579;28;20096;-65
2022/03/09 06:00:22;;;;;;;2.67;1.55;;;-0.60;99.90;;;;;;5041632;28;20109;-65
2022/03/09 06:02:48;;;;;;;3.47;2.10;;;-0.70;99.90;;;;;;5042734;28;20051;-65
2022/03/09 06:05:13;;;;;;;6.13;1.77;;;-0.80;99.90;;;;;;5033200;28;20129;-65
2022/03/09 06:07:39;;;;;;;4.53;2.08;;;-0.90;99.90;;;;;;5043748;28;20032;-65
2022/03/09 06:10:06;;;;;;;5.78;2.60;;;-1.00;99.90;;;;;;5035146;28;20029;-65
2022/03/09 06:12:31;;;;;;;5.28;2.45;;;-1.10;99.90;;;;;;5039265;28;20440;-65
2022/03/09 06:14:57;;;;;;;2.80;1.63;;;-1.10;99.90;;;;;;5044486;28;20029;-65
2022/03/09 06:17:23;;;;;;;7.70;2.05;;;-1.10;99.90;;;;;;5041528;28;20025;-65
2022/03/09 06:19:48;;;;;;;4.47;2.35;;;-1.30;99.90;;;;;;5045248;28;20041;-66
2022/03/09 06:22:14;;;;;;;5.97;2.13;;;-1.30;99.90;;;;;;5045679;28;20052;-65
2022/03/09 06:24:39;;;;;;;5.88;3.22;;;-1.30;99.90;;;;;;5040419;28;20424;-65
2022/03/09 06:27:05;;;;;;;8.13;2.63;;;-1.20;99.90;;;;;;5039303;28;20033;-66
2022/03/09 06:29:31;;;;;;;4.15;2.08;;;-1.30;99.90;;;;;;5044280;28;20090;-65
2022/03/09 06:31:57;;;;;;;5.30;2.15;;;-1.20;99.90;;;;;;5039837;28;20075;-65
2022/03/09 06:34:22;;;;;;;4.72;1.90;;;-1.30;99.90;;;;;;5046454;28;20104;-65
2022/03/09 06:36:48;;;;;;;5.93;1.80;;;-1.10;99.90;;;;;;5048641;28;20492;-65
2022/03/09 06:39:16;;;;;;;5.75;1.60;;;-1.10;99.90;;;;;;5045514;28;20474;-65
2022/03/09 06:41:43;;;;;;;2.45;1.77;;;-1.10;99.90;;;;;;5053215;28;20033;-65
2022/03/09 06:44:10;;;;;;;6.75;2.30;;;-1.00;99.90;;;;;;5035607;28;20090;-65
2022/03/09 06:46:36;;;;;;;7.45;1.90;;;-1.00;99.90;;;;;;5043426;28;20021;-65
2022/03/09 06:49:02;;;;;;;3.28;1.75;;;-0.70;99.90;;;;;;5038926;28;20079;-65
2022/03/09 06:51:28;;;;;;;6.53;2.17;;;-0.40;99.90;;;;;;5036310;28;20025;-65
2022/03/09 06:53:53;;;;;;;7.50;2.20;;;-0.30;99.90;;;;;;5036371;28;20037;-65
2022/03/09 06:56:19;;;;;;;4.65;2.15;;;-0.10;99.90;;;;;;5035030;28;20096;-65
2022/03/09 06:58:45;;;;;;;4.00;1.88;;;0.20;99.90;;;;;;5042367;28;20024;-65
2022/03/09 07:01:12;;;;;;;6.00;2.33;;;0.50;99.90;;;;;;5038054;28;20488;-65
2022/03/09 07:03:38;;;;;;;8.57;3.17;;;0.60;99.90;;;;;;5042013;28;20025;-65
2022/03/09 07:06:04;;;;;;;4.35;2.15;;;0.80;99.90;;;;;;5036984;28;20021;-65
2022/03/09 07:08:29;;;;;;;6.13;2.08;;;1.00;99.90;;;;;;5035357;28;20036;-66
2022/03/09 07:10:55;;;;;;;3.25;1.67;;;1.10;99.90;;;;;;5043915;28;20025;-65
2022/03/09 07:13:21;;;;;;;5.40;2.92;;;1.40;99.90;;;;;;5042797;28;20018;-65
2022/03/09 07:15:47;;;;;;;3.63;1.67;;;1.90;99.90;;;;;;5040223;28;20021;-65
2022/03/09 07:18:12;;;;;;;5.65;1.63;;;2.10;99.90;;;;;;5035159;28;20098;-65
2022/03/09 07:20:40;;;;;;;5.78;2.53;;;2.50;99.90;;;;;;5039063;28;20025;-65
2022/03/09 07:23:06;;;;;;;6.10;1.98;;;2.70;99.90;;;;;;5039372;28;20026;-65
2022/03/09 07:25:32;;;;;;;5.30;2.60;;;2.80;99.90;;;;;;5036942;28;20032;-65
2022/03/09 07:27:58;;;;;;;3.42;1.58;;;3.10;99.90;;;;;;5038524;28;20512;-65
2022/03/09 07:30:23;;;;;;;6.15;2.10;;;3.10;99.90;;;;;;5036144;28;20149;-65
2022/03/09 07:32:49;;;;;;;8.55;2.63;;;3.30;99.90;;;;;;5035701;28;20014;-65
2022/03/09 07:35:15;;;;;;;4.93;2.30;;;3.50;99.90;;;;;;5041257;28;20034;-65
2022/03/09 07:37:41;;;;;;;4.55;1.75;;;3.70;99.90;;;;;;5047601;28;20159;-65
2022/03/09 07:40:08;;;;;;;9.00;2.45;;;3.80;99.80;;;;;;5039106;28;20325;-65
2022/03/09 07:42:33;;;;;;;6.78;1.98;;;3.90;99.60;;;;;;5046704;28;20066;-65
2022/03/09 07:45:00;;;;;;;8.38;2.40;;;4.10;99.10;;;;;;5033781;28;20075;-65
2022/03/09 07:47:26;;;;;;;5.15;1.73;;;4.30;98.80;;;;;;5040033;28;20025;-65
2022/03/09 07:49:52;;;;;;;6.97;2.78;;;4.30;98.60;;;;;;5040985;28;20038;-65
2022/03/09 07:52:17;;;;;;;4.38;1.88;;;4.40;98.40;;;;;;5042477;28;20029;-65
2022/03/09 07:54:43;;;;;;;5.38;2.08;;;4.40;98.30;;;;;;5031330;28;20018;-65
2022/03/09 07:57:09;;;;;;;5.05;2.22;;;4.50;98.30;;;;;;5036989;28;20108;-65
2022/03/09 07:59:34;;;;;;;8.02;2.38;;;4.60;98.00;;;;;;5035175;28;20032;-65
2022/03/09 08:02:00;;;;;;;3.92;2.15;;;4.70;97.40;;;;;;5043133;28;20033;-65
2022/03/09 08:04:26;;;;;;;12.57;3.05;;;4.80;97.20;;;;;;5037780;28;20031;-65
2022/03/09 08:06:53;;;;;;;7.32;2.20;;;5.00;97.50;;;;;;5030182;28;20037;-65
2022/03/09 08:09:19;;;;;;;5.53;2.15;;;5.00;97.20;;;;;;5040115;28;20025;-65
2022/03/09 08:11:46;;;;;;;3.38;1.67;;;5.10;96.70;;;;;;5037580;28;20026;-65
2022/03/09 08:14:12;;;;;;;5.65;2.45;;;5.30;96.40;;;;;;5037251;28;20063;-65
2022/03/09 08:16:38;;;;;;;6.43;2.85;;;5.40;95.90;;;;;;5037038;28;20032;-65
2022/03/09 08:19:04;;;;;;;5.85;1.95;;;5.50;95.60;;;;;;5037869;28;20470;-65
2022/03/09 08:21:30;;;;;;;8.80;3.10;;;5.60;95.40;;;;;;5040911;28;20033;-65
2022/03/09 08:23:56;;;;;;;5.47;2.00;;;5.70;95.10;;;;;;5036232;28;20095;-66
2022/03/09 08:26:22;;;;;;;6.88;2.35;;;5.90;95.20;;;;;;5046194;28;20035;-65
2022/03/09 08:28:47;;;;;;;8.63;3.28;;;6.00;94.70;;;;;;5045420;28;20020;-65
2022/03/09 08:31:13;;;;;;;7.47;2.15;;;6.00;95.00;;;;;;5046084;28;20055;-67
2022/03/09 08:33:39;;;;;;;7.47;2.10;;;6.10;95.00;;;;;;5046317;28;20693;-65
2022/03/09 08:36:05;;;;;;;6.28;2.63;;;6.20;95.30;;;;;;5047790;28;20104;-66
2022/03/09 08:38:30;;;;;;;20.65;3.38;;;6.40;95.30;;;;;;5047187;28;20056;-66
2022/03/09 08:40:57;;;;;;;6.63;1.90;;;6.70;94.70;;;;;;5048910;28;20083;-65
2022/03/09 08:43:23;;;;;;;5.30;2.65;;;7.20;94.20;;;;;;5044139;28;20025;-65
2022/03/09 08:45:48;;;;;;;12.80;2.83;;;7.70;93.40;;;;;;5036359;28;20099;-65
2022/03/09 08:48:14;;;;;;;13.23;3.25;;;8.10;92.60;;;;;;5039593;28;20041;-65
2022/03/09 08:50:40;;;;;;;6.97;2.20;;;8.60;91.40;;;;;;5038762;28;20033;-65
2022/03/09 08:53:06;;;;;;;7.80;2.83;;;9.00;90.50;;;;;;5041394;28;20037;-65
2022/03/09 08:55:32;;;;;;;9.32;2.53;;;9.60;90.50;;;;;;5043711;28;20103;-66
2022/03/09 08:57:57;;;;;;;7.15;2.80;;;10.30;88.50;;;;;;5037185;28;20063;-66
2022/03/09 09:00:24;;;;;;;6.85;2.63;;;10.60;85.00;;;;;;5048484;28;20408;-66
2022/03/09 09:02:49;;;;;;;11.18;2.72;;;11.20;83.40;;;;;;5047544;28;20029;-66
2022/03/09 09:05:15;;;;;;;7.70;2.97;;;11.90;80.90;;;;;;5045202;28;20033;-63
2022/03/09 09:07:41;;;;;;;8.63;2.20;;;12.20;80.60;;;;;;5037035;28;20033;-64
2022/03/09 09:10:07;;;;;;;10.57;2.97;;;12.50;78.40;;;;;;5044945;28;20087;-66
2022/03/09 09:12:33;;;;;;;14.23;3.08;;;12.80;76.50;;;;;;5040513;28;20396;-66
2022/03/09 09:14:58;;;;;;;8.93;2.42;;;14.00;74.00;;;;;;5046554;28;20043;-66
2022/03/09 09:17:24;;;;;;;7.68;2.83;;;14.50;72.00;;;;;;5048408;28;20049;-66
2022/03/09 09:19:50;;;;;;;8.00;2.70;;;14.70;70.00;;;;;;5049828;28;20037;-66
2022/03/09 09:22:15;;;;;;;8.50;2.45;;;14.50;69.10;;;;;;5051301;28;20389;-65
2022/03/09 09:24:41;;;;;;;9.80;3.05;;;13.60;69.90;;;;;;5050628;28;20067;-66
2022/03/09 09:27:06;;;;;;;4.75;2.20;;;12.90;67.40;;;;;;5041542;28;20876;-66
2022/03/09 09:29:32;;;;;;;6.07;2.08;;;12.70;67.80;;;;;;5037700;28;20404;-66
2022/03/09 09:31:58;;;;;;;4.93;1.70;;;12.60;68.10;;;;;;5045560;28;20033;-66
2022/03/09 09:34:24;;;;;;;8.02;2.58;;;12.00;67.00;;;;;;5048321;28;20021;-66
2022/03/09 09:36:49;;;;;;;4.97;1.75;;;11.80;66.80;;;;;;5041192;28;20717;-65
2022/03/09 09:39:17;;;;;;;6.15;1.85;;;11.60;66.40;;;;;;5042216;28;20033;-65
2022/03/09 09:41:44;;;;;;;6.65;2.95;;;12.00;67.40;;;;;;5043183;28;20033;-66
2022/03/09 09:44:11;;;;;;;9.20;2.65;;;12.50;67.10;;;;;;5046051;28;20083;-66
2022/03/09 09:46:39;;;;;;;8.32;2.55;;;12.90;65.20;;;;;;5041776;28;20029;-66
2022/03/09 09:49:08;;;;;;;7.47;2.60;;;12.80;65.50;;;;;;5043585;28;20024;-66
2022/03/09 09:51:37;;;;;;;7.43;2.70;;;13.30;65.60;;;;;;5040143;28;20099;-66
2022/03/09 09:54:03;;;;;;;5.55;1.85;;;13.70;65.00;;;;;;5045635;28;20052;-65
2022/03/09 09:56:30;;;;;;;10.52;2.42;;;13.90;64.00;;;;;;5039403;28;20029;-66
2022/03/09 09:58:56;;;;;;;5.40;2.25;;;13.80;63.20;;;;;;5040858;28;20021;-66
2022/03/09 10:01:22;;;;;;;9.10;2.88;;;13.70;64.00;;;;;;5036011;28;20017;-66
2022/03/09 10:03:47;;;;;;;7.82;2.72;;;14.10;63.50;;;;;;5037777;28;20036;-66
2022/03/09 10:06:13;;;;;;;10.98;3.05;;;14.40;63.00;;;;;;5046250;28;20028;-66
2022/03/09 10:08:39;;;;;;;9.23;2.50;;;15.00;62.20;;;;;;5049428;28;20086;-66
2022/03/09 10:11:05;;;;;;;9.50;2.17;;;14.90;60.90;;;;;;5045427;28;20103;-66
2022/03/09 10:13:33;;;;;;;9.05;2.60;;;14.80;60.60;;;;;;5046505;28;20029;-66
2022/03/09 10:16:10;;;;;;;8.43;2.47;;;15.30;60.60;;;;;;5046603;28;20056;-66
2022/03/09 10:18:36;;;;;;;7.65;2.55;;;15.00;60.30;;;;;;5038721;28;20481;-66
2022/03/09 10:21:35;;;;;;;9.05;2.70;;;15.60;60.00;;;;;;5040807;28;20040;-66
2022/03/09 10:24:06;;;;;;;7.05;2.42;;;16.10;58.50;;;;;;5038872;28;20483;-66
2022/03/09 10:26:34;;;;;;;8.05;2.42;;;16.50;57.80;;;;;;5042764;28;20013;-66
2022/03/09 10:29:04;;;;;;;6.82;2.03;;;17.30;57.60;;;;;;5035623;28;20033;-66
2022/03/09 10:31:50;;;;;;;9.35;2.55;;;17.20;57.70;;;;;;5032421;28;20633;-66
2022/03/09 10:34:24;;;;;;;8.32;2.55;;;17.40;57.30;;;;;;5030945;28;20101;-66
2022/03/09 10:36:54;;;;;;;7.05;2.40;;;17.20;56.50;;;;;;5032470;28;20523;-66
2022/03/09 10:39:23;;;;;;;6.55;2.22;;;16.30;55.80;;;;;;5041962;28;20112;-66
2022/03/09 10:41:48;;;;;;;10.10;2.80;;;17.10;54.80;;;;;;5038263;28;20546;-66
2022/03/09 10:44:14;;;;;;;7.22;2.33;;;16.80;54.50;;;;;;5042552;28;20517;-66
2022/03/09 10:46:50;;;;;;;7.75;2.80;;;16.40;56.90;;;;;;5042451;28;20174;-66
2022/03/09 10:49:23;;;;;;;8.70;2.67;;;17.50;55.70;;;;;;5044296;28;20560;-66
2022/03/09 10:51:51;;;;;;;8.15;3.03;;;17.30;54.20;;;;;;5039140;28;20021;-66
2022/03/09 10:54:26;;;;;;;7.97;2.42;;;18.40;53.40;;;;;;5043610;28;20044;-66
2022/03/09 10:57:03;;;;;;;7.30;1.92;;;18.20;54.00;;;;;;5046534;28;20037;-66
2022/03/09 10:59:52;;;;;;;11.10;2.53;;;18.70;53.60;;;;;;5041893;28;20025;-66
2022/03/09 11:02:20;;;;;;;9.90;2.95;;;18.10;53.20;;;;;;5047560;28;20027;-66
2022/03/09 11:05:09;;;;;;;8.32;2.40;;;17.90;52.70;;;;;;5048917;28;20030;-66
2022/03/09 11:07:39;;;;;;;7.38;2.72;;;17.60;52.50;;;;;;5065463;28;20477;-66
2022/03/09 11:10:09;;;;;;;8.90;2.50;;;17.10;51.80;;;;;;5042648;28;20095;-66
2022/03/09 11:12:37;;;;;;;7.00;2.20;;;17.70;52.90;;;;;;5046034;28;20062;-66
2022/03/09 11:15:03;;;;;;;6.72;2.15;;;18.00;51.30;;;;;;5045030;28;20028;-66
2022/03/09 11:17:29;;;;;;;7.07;2.30;;;18.10;52.70;;;;;;5025713;28;20250;-66
2022/03/09 11:19:54;;;;;;;9.25;2.45;;;19.60;51.30;;;;;;5028550;28;20395;-66
2022/03/09 11:22:20;;;;;;;9.15;2.53;;;19.20;51.20;;;;;;5036453;28;20155;-66
2022/03/09 11:24:46;;;;;;;7.30;2.47;;;19.10;50.30;;;;;;5032300;28;20052;-66
2022/03/09 11:27:14;;;;;;;7.28;2.25;;;19.10;49.40;;;;;;5028204;28;20040;-66
2022/03/09 11:29:41;;;;;;;5.85;2.15;;;19.10;49.00;;;;;;5029780;28;20132;-66
2022/03/09 11:32:09;;;;;;;9.63;2.50;;;18.70;49.90;;;;;;5025225;28;20023;-66
2022/03/09 11:34:46;;;;;;;7.82;2.63;;;18.80;48.50;;;;;;5026728;28;20469;-66
2022/03/09 11:37:17;;;;;;;6.85;2.28;;;19.40;48.50;;;;;;5040711;28;20144;-66
2022/03/09 11:40:08;;;;;;;8.55;2.38;;;19.20;47.70;;;;;;5031188;28;20040;-66
2022/03/09 11:42:36;;;;;;;9.63;2.42;;;18.70;48.00;;;;;;5040273;28;20072;-64
2022/03/09 11:45:14;;;;;;;7.80;2.65;;;18.00;48.50;;;;;;5042918;28;20033;-66
2022/03/09 11:47:58;;;;;;;9.60;3.10;;;19.20;48.90;;;;;;5040610;28;20028;-66
2022/03/09 11:50:24;;;;;;;8.43;2.80;;;20.40;47.10;;;;;;5031747;28;20026;-66
2022/03/09 11:53:05;;;;;;;8.65;2.60;;;19.50;46.70;;;;;;5045155;28;20029;-66
2022/03/09 11:55:32;;;;;;;9.25;2.63;;;20.10;46.60;;;;;;5041267;28;20100;-66
2022/03/09 11:58:08;;;;;;;7.60;2.50;;;19.90;46.40;;;;;;5039483;28;20129;-66
2022/03/09 12:00:38;;;;;;;9.20;3.22;;;19.50;44.80;;;;;;5039356;28;20033;-66
2022/03/09 12:03:04;;;;;;;8.43;2.90;;;18.90;46.20;;;;;;5042543;28;20070;-66
2022/03/09 12:05:41;;;;;;;7.70;2.50;;;18.90;45.60;;;;;;5039343;28;20044;-66
2022/03/09 12:08:12;;;;;;;11.32;3.17;;;19.30;45.70;;;;;;5040782;28;20093;-66
2022/03/09 12:10:45;;;;;;;7.65;2.55;;;20.00;45.50;;;;;;5041175;28;20115;-66
2022/03/09 12:13:27;;;;;;;26.58;2.22;;;20.50;44.50;;;;;;5043186;28;20057;-66
2022/03/09 12:16:14;;;;;;;9.00;2.78;;;19.00;45.50;;;;;;5054513;28;20033;-66
2022/03/09 12:18:58;;;;;;;10.48;2.95;;;19.70;45.30;;;;;;5040155;28;20646;-66
2022/03/09 12:21:26;;;;;;;9.30;2.47;;;20.70;45.00;;;;;;5036080;28;20077;-66
2022/03/09 12:24:04;;;;;;;7.95;2.80;;;21.00;45.00;;;;;;5033096;28;20040;-66
2022/03/09 12:26:46;;;;;;;8.57;2.75;;;21.10;44.60;;;;;;5034483;28;20030;-66
2022/03/09 12:29:37;;;;;;;6.63;2.28;;;21.00;43.80;;;;;;5037726;28;20488;-66
2022/03/09 12:32:02;;;;;;;8.65;2.55;;;20.70;45.00;;;;;;5028846;28;20423;-66
2022/03/09 12:34:30;;;;;;;8.18;2.50;;;20.80;44.80;;;;;;5038815;28;20062;-66
2022/03/09 12:36:57;;;;;;;6.90;2.17;;;21.60;43.60;;;;;;5048528;28;20025;-66
2022/03/09 12:39:23;;;;;;;7.15;2.40;;;21.50;43.60;;;;;;5043794;28;20098;-66
2022/03/09 12:41:57;;;;;;;8.32;2.20;;;21.50;42.80;;;;;;5036910;28;20068;-66
2022/03/09 12:44:24;;;;;;;7.38;2.47;;;22.00;42.60;;;;;;5039152;28;20096;-66
2022/03/09 12:46:52;;;;;;;7.10;2.40;;;21.90;42.30;;;;;;5039851;28;20363;-66
2022/03/09 12:49:33;;;;;;;7.20;2.70;;;22.30;42.00;;;;;;5045631;28;20112;-66
2022/03/09 12:52:03;;;;;;;8.00;2.75;;;22.20;43.30;;;;;;5047063;28;20480;-66